Time;durP1;ratioP1;P1;durP2;ratioP2;P2;SDS_P1;SDS_P2;PMS_P1;PMS_P2;Temp;Humidity;BMP_temperature;BMP_pressure;BME280_temperature;BME280_humidity;BME280_pressure;Samples;Min_cycle;Max_cycle;Signal;HPM_P1;HPM_P2
2023/10/30 00:01:57;;;;;;;4.57;1.80;;;12.00;99.90;;;;;;5086290;28;20417;-71
2023/10/30 00:04:24;;;;;;;5.40;1.80;;;11.90;99.90;;;;;;5085513;28;20410;-70
2023/10/30 00:06:50;;;;;;;4.45;1.90;;;11.90;99.90;;;;;;5081799;28;20405;-72
2023/10/30 00:09:17;;;;;;;6.13;2.30;;;12.00;99.90;;;;;;5085329;28;20752;-72
2023/10/30 00:11:46;;;;;;;6.45;2.47;;;12.00;99.90;;;;;;5081458;28;20533;-72
2023/10/30 00:14:14;;;;;;;5.45;1.95;;;12.00;99.90;;;;;;5076422;28;20420;-70
2023/10/30 00:16:42;;;;;;;4.18;1.30;;;12.00;99.90;;;;;;5084365;28;20406;-69
2023/10/30 00:19:08;;;;;;;6.03;1.98;;;12.00;99.90;;;;;;5085919;28;20433;-72
2023/10/30 00:21:35;;;;;;;5.88;1.58;;;12.10;99.90;;;;;;5083953;28;20405;-72
2023/10/30 00:24:02;;;;;;;3.28;1.48;;;12.10;99.90;;;;;;5084704;28;20446;-70
2023/10/30 00:26:29;;;;;;;6.57;1.90;;;12.20;99.90;;;;;;5081145;28;20512;-70
2023/10/30 00:28:57;;;;;;;4.43;1.60;;;12.20;99.90;;;;;;5084120;28;20457;-71
2023/10/30 00:31:24;;;;;;;5.10;1.40;;;12.20;99.90;;;;;;5083412;28;20440;-70
2023/10/30 00:33:53;;;;;;;4.00;1.60;;;12.20;99.90;;;;;;5085214;28;20410;-69
2023/10/30 00:36:19;;;;;;;4.75;1.88;;;12.20;99.90;;;;;;5084303;28;21041;-70
2023/10/30 00:38:46;;;;;;;5.68;1.83;;;12.30;99.90;;;;;;5084631;28;20477;-72
2023/10/30 00:41:13;;;;;;;7.03;1.60;;;12.30;99.90;;;;;;5081614;28;20482;-69
2023/10/30 00:43:40;;;;;;;4.10;1.90;;;12.30;99.90;;;;;;5081847;28;20446;-69
2023/10/30 00:46:07;;;;;;;5.77;1.73;;;12.30;99.90;;;;;;5083263;28;20412;-69
2023/10/30 00:48:34;;;;;;;5.82;1.70;;;12.30;99.90;;;;;;5084722;28;20901;-70
2023/10/30 00:51:02;;;;;;;3.88;1.45;;;12.40;99.90;;;;;;5084892;28;20563;-69
2023/10/30 00:53:29;;;;;;;5.78;1.70;;;12.40;99.90;;;;;;5083670;28;20413;-72
2023/10/30 00:55:55;;;;;;;3.55;1.50;;;12.30;99.90;;;;;;5083147;28;20413;-73
2023/10/30 00:58:22;;;;;;;6.25;1.60;;;12.30;99.90;;;;;;5081389;28;20919;-70
2023/10/30 01:00:49;;;;;;;4.70;1.60;;;12.30;99.90;;;;;;5079087;28;20413;-69
2023/10/30 01:03:19;;;;;;;4.32;1.30;;;12.30;99.90;;;;;;5076448;28;20435;-69
2023/10/30 01:05:47;;;;;;;4.93;1.55;;;12.30;99.90;;;;;;5083666;28;20406;-69
2023/10/30 01:08:15;;;;;;;4.97;1.50;;;12.30;99.90;;;;;;5082594;28;20406;-69
2023/10/30 01:10:41;;;;;;;5.72;1.60;;;12.40;99.90;;;;;;5079598;28;21412;-71
2023/10/30 01:13:08;;;;;;;3.20;1.10;;;12.30;99.90;;;;;;5080529;28;20521;-72
2023/10/30 01:15:35;;;;;;;7.80;1.90;;;12.40;99.90;;;;;;5084610;28;20410;-70
2023/10/30 01:18:02;;;;;;;5.43;1.52;;;12.30;99.90;;;;;;5077742;28;20433;-71
2023/10/30 01:20:28;;;;;;;4.60;1.73;;;12.30;99.90;;;;;;5082765;28;20414;-72
2023/10/30 01:22:56;;;;;;;4.75;1.80;;;12.30;99.90;;;;;;5083171;28;20866;-71
2023/10/30 01:25:24;;;;;;;5.88;1.70;;;12.30;99.90;;;;;;5084577;28;20499;-71
2023/10/30 01:27:50;;;;;;;5.93;1.60;;;12.30;99.90;;;;;;5082380;28;20418;-71
2023/10/30 01:30:17;;;;;;;6.32;1.88;;;12.30;99.90;;;;;;5083399;28;20436;-71
2023/10/30 01:32:44;;;;;;;5.43;1.40;;;12.30;99.90;;;;;;5083566;28;20414;-70
2023/10/30 01:35:11;;;;;;;5.80;1.93;;;12.30;99.90;;;;;;5084424;28;20410;-72
2023/10/30 01:37:37;;;;;;;8.30;1.47;;;12.30;99.90;;;;;;5083867;28;20410;-69
2023/10/30 01:40:06;;;;;;;6.05;2.03;;;12.30;99.90;;;;;;5082232;28;20410;-72
2023/10/30 01:42:34;;;;;;;4.88;1.80;;;12.30;99.90;;;;;;5082304;28;20565;-74
2023/10/30 01:45:01;;;;;;;6.35;1.85;;;12.30;99.90;;;;;;5084109;28;20425;-69
2023/10/30 01:47:28;;;;;;;4.30;1.33;;;12.30;99.90;;;;;;5084223;28;20420;-69
2023/10/30 01:49:56;;;;;;;8.45;1.90;;;12.30;99.90;;;;;;5082172;28;20436;-70
2023/10/30 01:52:25;;;;;;;5.50;2.25;;;12.20;99.90;;;;;;5083495;28;20457;-69
2023/10/30 01:54:52;;;;;;;6.60;1.70;;;12.30;99.90;;;;;;5083463;28;20482;-68
2023/10/30 01:57:22;;;;;;;6.38;1.80;;;12.30;99.90;;;;;;5081994;28;20429;-69
2023/10/30 01:59:51;;;;;;;6.78;1.38;;;12.20;99.90;;;;;;5083668;28;20470;-67
2023/10/30 02:02:19;;;;;;;5.05;1.50;;;12.20;99.90;;;;;;5082351;28;20498;-68
2023/10/30 02:04:46;;;;;;;6.03;1.70;;;12.20;99.90;;;;;;5079873;28;21311;-68
2023/10/30 02:07:12;;;;;;;7.00;1.77;;;12.30;99.90;;;;;;5076745;28;20434;-68
2023/10/30 02:09:40;;;;;;;6.43;1.50;;;12.30;99.90;;;;;;5082209;28;20489;-67
2023/10/30 02:12:08;;;;;;;4.93;1.80;;;12.30;99.90;;;;;;5082876;28;20429;-72
2023/10/30 02:14:35;;;;;;;5.55;2.00;;;12.30;99.90;;;;;;5084011;28;20441;-69
2023/10/30 02:17:03;;;;;;;5.85;1.70;;;12.30;99.90;;;;;;5083429;28;20435;-68
2023/10/30 02:19:30;;;;;;;3.28;1.40;;;12.30;99.90;;;;;;5080984;28;20425;-68
2023/10/30 02:21:57;;;;;;;3.70;1.30;;;12.30;99.90;;;;;;5079529;28;20444;-68
2023/10/30 02:24:24;;;;;;;5.65;1.70;;;12.30;99.90;;;;;;5079037;28;20888;-68
2023/10/30 02:26:52;;;;;;;5.55;1.50;;;12.30;99.90;;;;;;5082510;28;20418;-71
2023/10/30 02:29:19;;;;;;;4.32;1.65;;;12.30;99.90;;;;;;5077966;28;20410;-68
2023/10/30 02:31:46;;;;;;;5.53;1.60;;;12.30;99.90;;;;;;5078866;28;20436;-70
2023/10/30 02:34:14;;;;;;;5.53;1.52;;;12.30;99.90;;;;;;5082213;28;20442;-69
2023/10/30 02:36:40;;;;;;;4.68;1.70;;;12.30;99.90;;;;;;5081974;28;20404;-71
2023/10/30 02:39:08;;;;;;;5.53;1.70;;;12.20;99.90;;;;;;5077160;28;20422;-70
2023/10/30 02:41:35;;;;;;;5.68;1.48;;;12.30;99.90;;;;;;5079571;28;20496;-69
2023/10/30 02:44:03;;;;;;;5.63;2.00;;;12.30;99.90;;;;;;5080915;28;20433;-69
2023/10/30 02:46:30;;;;;;;5.78;1.83;;;12.20;99.90;;;;;;5080826;28;20406;-69
2023/10/30 02:48:57;;;;;;;5.15;1.30;;;12.30;99.90;;;;;;5081732;28;20406;-68
2023/10/30 02:51:23;;;;;;;4.78;1.70;;;12.30;99.90;;;;;;5081419;28;20441;-71
2023/10/30 02:53:50;;;;;;;6.60;2.00;;;12.30;99.90;;;;;;5081489;28;20432;-68
2023/10/30 02:56:17;;;;;;;5.70;1.60;;;12.30;99.90;;;;;;5081070;28;20421;-69
2023/10/30 02:58:43;;;;;;;5.88;1.90;;;12.30;99.90;;;;;;5081289;28;20456;-70
2023/10/30 03:01:11;;;;;;;5.57;1.60;;;12.30;99.90;;;;;;5082360;28;20413;-69
2023/10/30 03:03:39;;;;;;;2.78;1.30;;;12.20;99.90;;;;;;5080846;28;20406;-70
2023/10/30 03:06:06;;;;;;;4.72;1.50;;;12.30;99.90;;;;;;5074918;28;20420;-70
2023/10/30 03:08:33;;;;;;;6.32;1.60;;;12.20;99.90;;;;;;5080730;28;20437;-69
2023/10/30 03:11:00;;;;;;;5.65;1.73;;;12.20;99.90;;;;;;5079232;28;20429;-68
2023/10/30 03:13:27;;;;;;;5.18;1.70;;;12.30;99.90;;;;;;5078649;28;20433;-68
2023/10/30 03:15:53;;;;;;;5.72;2.20;;;12.30;99.90;;;;;;5077923;28;20440;-68
2023/10/30 03:18:21;;;;;;;5.00;1.63;;;12.30;99.90;;;;;;5081314;28;20872;-69
2023/10/30 03:20:48;;;;;;;4.88;1.63;;;12.20;99.90;;;;;;5082730;28;20506;-69
2023/10/30 03:23:15;;;;;;;7.03;1.70;;;12.30;99.90;;;;;;5082241;28;20420;-68
2023/10/30 03:25:42;;;;;;;4.40;1.52;;;12.20;99.90;;;;;;5083330;28;20428;-68
2023/10/30 03:28:09;;;;;;;4.50;1.40;;;12.20;99.90;;;;;;5084489;28;20433;-69
2023/10/30 03:30:36;;;;;;;6.30;2.20;;;12.20;99.90;;;;;;5085368;28;20409;-70
2023/10/30 03:33:03;;;;;;;6.20;1.90;;;12.20;99.90;;;;;;5084670;28;20566;-69
2023/10/30 03:35:31;;;;;;;5.40;1.70;;;12.20;99.90;;;;;;5085004;28;20412;-68
2023/10/30 03:37:58;;;;;;;4.67;1.60;;;12.20;99.90;;;;;;5085731;28;20492;-70
2023/10/30 03:40:25;;;;;;;6.80;2.13;;;12.20;99.90;;;;;;5084665;28;20410;-69
2023/10/30 03:42:52;;;;;;;6.40;1.42;;;12.30;99.90;;;;;;5085028;28;20409;-68
2023/10/30 03:45:19;;;;;;;8.70;1.98;;;12.20;99.90;;;;;;5085406;28;20513;-68
2023/10/30 03:47:46;;;;;;;3.95;1.63;;;12.20;99.90;;;;;;5085304;28;20409;-72
2023/10/30 03:50:13;;;;;;;4.75;1.63;;;12.20;99.90;;;;;;5085363;28;20503;-68
2023/10/30 03:52:43;;;;;;;5.28;1.95;;;12.20;99.90;;;;;;5084485;28;20421;-73
2023/10/30 03:55:10;;;;;;;5.28;2.00;;;12.10;99.90;;;;;;5084797;28;20785;-71
2023/10/30 03:57:37;;;;;;;5.45;2.00;;;12.10;99.90;;;;;;5084909;28;20409;-70
2023/10/30 04:00:07;;;;;;;7.03;1.95;;;12.10;99.90;;;;;;5082793;28;20438;-70
2023/10/30 04:02:33;;;;;;;4.68;1.60;;;12.00;99.90;;;;;;5082926;28;20426;-70
2023/10/30 04:05:00;;;;;;;4.45;1.67;;;12.00;99.90;;;;;;5081664;28;20543;-69
2023/10/30 04:07:27;;;;;;;5.60;1.70;;;12.00;99.90;;;;;;5082350;28;20433;-71
2023/10/30 04:09:55;;;;;;;9.30;2.00;;;11.90;99.90;;;;;;5083295;28;20430;-70
2023/10/30 04:12:22;;;;;;;6.32;1.80;;;11.90;99.90;;;;;;5082051;28;20430;-70
2023/10/30 04:14:49;;;;;;;4.43;1.90;;;11.90;99.90;;;;;;5082227;28;20452;-70
2023/10/30 04:17:16;;;;;;;6.27;1.43;;;11.90;99.90;;;;;;5083707;28;20491;-70
2023/10/30 04:19:43;;;;;;;4.80;1.80;;;11.90;99.90;;;;;;5083733;28;20418;-71
2023/10/30 04:22:10;;;;;;;6.07;1.90;;;11.90;99.90;;;;;;5083668;28;20418;-68
2023/10/30 04:24:36;;;;;;;5.68;1.50;;;11.90;99.90;;;;;;5082156;28;20420;-68
2023/10/30 04:27:04;;;;;;;6.03;1.80;;;11.90;99.90;;;;;;5083325;28;20500;-70
2023/10/30 04:29:32;;;;;;;5.13;1.63;;;11.90;99.90;;;;;;5083026;28;20425;-73
2023/10/30 04:31:59;;;;;;;6.25;1.83;;;11.90;99.90;;;;;;5083980;28;20436;-68
2023/10/30 04:34:25;;;;;;;6.22;1.75;;;11.80;99.90;;;;;;5083924;28;20414;-68
2023/10/30 04:36:52;;;;;;;6.55;2.00;;;11.90;99.90;;;;;;5083960;28;21192;-67
2023/10/30 04:39:19;;;;;;;6.97;2.13;;;11.90;99.90;;;;;;5084438;28;20446;-66
2023/10/30 04:41:46;;;;;;;5.95;1.80;;;11.80;99.90;;;;;;5080435;28;20424;-68
2023/10/30 04:44:14;;;;;;;4.50;1.83;;;11.90;99.90;;;;;;5084410;28;20424;-70
2023/10/30 04:46:40;;;;;;;5.73;1.80;;;11.90;99.90;;;;;;5083222;28;20419;-69
2023/10/30 04:49:07;;;;;;;8.57;2.00;;;11.90;99.90;;;;;;5081463;28;20947;-70
2023/10/30 04:51:34;;;;;;;4.13;1.90;;;11.90;99.90;;;;;;5084492;28;20417;-70
2023/10/30 04:54:01;;;;;;;4.30;1.70;;;11.80;99.90;;;;;;5088577;28;20441;-65
2023/10/30 04:56:28;;;;;;;4.65;1.60;;;11.80;99.90;;;;;;5087855;28;20429;-68
2023/10/30 04:58:55;;;;;;;5.00;1.70;;;11.90;99.90;;;;;;5083174;28;20408;-67
2023/10/30 05:01:23;;;;;;;6.30;2.00;;;11.90;99.90;;;;;;5081554;28;20425;-67
2023/10/30 05:03:51;;;;;;;5.40;1.60;;;11.90;99.90;;;;;;5084124;28;20436;-67
2023/10/30 05:06:18;;;;;;;5.05;1.80;;;11.90;99.90;;;;;;5080530;28;20544;-66
2023/10/30 05:08:45;;;;;;;9.73;2.30;;;11.90;99.90;;;;;;5080578;28;20416;-66
2023/10/30 05:11:12;;;;;;;7.80;2.35;;;11.90;99.90;;;;;;5080526;28;20441;-65
2023/10/30 05:13:38;;;;;;;3.83;1.70;;;11.90;99.90;;;;;;5082316;28;20490;-67
2023/10/30 05:16:06;;;;;;;4.68;1.80;;;11.90;99.90;;;;;;5082848;28;20429;-67
2023/10/30 05:18:34;;;;;;;5.32;1.60;;;11.90;99.90;;;;;;5084900;28;20402;-67
2023/10/30 05:21:01;;;;;;;5.47;1.88;;;12.00;99.90;;;;;;5085210;28;20414;-67
2023/10/30 05:23:28;;;;;;;5.40;1.83;;;12.00;99.90;;;;;;5083647;28;20413;-67
2023/10/30 05:25:55;;;;;;;6.47;1.75;;;12.00;99.90;;;;;;5079195;28;20721;-67
2023/10/30 05:28:22;;;;;;;7.32;1.80;;;12.00;99.90;;;;;;5083910;28;20432;-66
2023/10/30 05:30:49;;;;;;;4.53;1.80;;;11.90;99.90;;;;;;5083755;28;20492;-67
2023/10/30 05:33:15;;;;;;;4.47;1.57;;;12.00;99.90;;;;;;5072786;28;20472;-67
2023/10/30 05:35:43;;;;;;;4.43;1.53;;;11.90;99.90;;;;;;5083405;28;20862;-67
2023/10/30 05:38:10;;;;;;;4.95;1.80;;;11.90;99.90;;;;;;5081328;28;20402;-67
2023/10/30 05:40:37;;;;;;;5.63;1.77;;;11.90;99.90;;;;;;5084250;28;20406;-67
2023/10/30 05:43:05;;;;;;;9.15;2.22;;;11.90;99.90;;;;;;5082109;28;20525;-67
2023/10/30 05:45:32;;;;;;;5.80;2.00;;;11.90;99.90;;;;;;5079597;28;20460;-67
2023/10/30 05:47:58;;;;;;;4.10;1.57;;;11.80;99.90;;;;;;5084773;28;20494;-67
2023/10/30 05:50:25;;;;;;;2.83;1.70;;;11.80;99.90;;;;;;5051437;28;20444;-65
2023/10/30 05:52:53;;;;;;;5.38;1.48;;;11.80;99.90;;;;;;5035454;28;20434;-67
2023/10/30 05:55:20;;;;;;;6.43;1.85;;;11.70;99.90;;;;;;5036765;28;20446;-72
2023/10/30 05:57:47;;;;;;;6.78;2.10;;;11.70;99.90;;;;;;5037141;28;20434;-66
2023/10/30 06:00:15;;;;;;;5.85;1.70;;;11.70;99.90;;;;;;5037298;28;21112;-65
2023/10/30 06:02:42;;;;;;;4.00;1.60;;;11.70;99.90;;;;;;5037573;28;20438;-65
2023/10/30 06:05:12;;;;;;;6.57;1.90;;;11.60;99.90;;;;;;5060869;28;20509;-67
2023/10/30 06:07:39;;;;;;;6.10;2.00;;;11.60;99.90;;;;;;5079581;28;20426;-67
2023/10/30 06:10:10;;;;;;;4.95;2.40;;;11.60;99.90;;;;;;5083873;28;20410;-67
2023/10/30 06:12:37;;;;;;;6.72;2.10;;;11.60;99.90;;;;;;5083045;28;20540;-66
2023/10/30 06:15:04;;;;;;;6.85;2.03;;;11.60;99.90;;;;;;5081607;28;20445;-67
2023/10/30 06:17:30;;;;;;;5.93;1.80;;;11.60;99.90;;;;;;5077090;28;20428;-67
2023/10/30 06:19:57;;;;;;;7.93;2.25;;;11.60;99.90;;;;;;5079440;28;20426;-67
2023/10/30 06:22:24;;;;;;;4.65;2.22;;;11.60;99.90;;;;;;5081830;28;20448;-67
2023/10/30 06:24:51;;;;;;;6.40;2.40;;;11.50;99.90;;;;;;5082288;28;20502;-67
2023/10/30 06:27:19;;;;;;;5.38;2.30;;;11.60;99.90;;;;;;5082503;28;20451;-67
2023/10/30 06:29:45;;;;;;;4.55;2.20;;;11.50;99.90;;;;;;5079451;28;20427;-66
2023/10/30 06:32:12;;;;;;;5.45;2.30;;;11.50;99.90;;;;;;5080534;28;20468;-67
2023/10/30 06:34:39;;;;;;;6.22;2.67;;;11.50;99.90;;;;;;5082176;28;20440;-66
2023/10/30 06:37:06;;;;;;;3.88;2.00;;;11.60;99.90;;;;;;5078571;28;20454;-66
2023/10/30 06:39:33;;;;;;;5.07;2.30;;;11.60;99.90;;;;;;5082828;28;20429;-67
2023/10/30 06:42:00;;;;;;;5.17;2.57;;;11.60;99.90;;;;;;5083050;28;20860;-67
2023/10/30 06:44:28;;;;;;;5.70;2.50;;;11.50;99.90;;;;;;5085357;28;20421;-67
2023/10/30 06:46:56;;;;;;;4.22;2.22;;;11.50;99.90;;;;;;5083295;28;20485;-67
2023/10/30 06:49:22;;;;;;;5.80;2.60;;;11.60;99.90;;;;;;5085416;28;20422;-66
2023/10/30 06:51:49;;;;;;;5.35;2.60;;;11.60;99.90;;;;;;5084787;28;20417;-66
2023/10/30 06:54:16;;;;;;;7.20;2.80;;;11.60;99.90;;;;;;5082161;28;20481;-66
2023/10/30 06:56:43;;;;;;;6.47;2.80;;;11.50;99.90;;;;;;5085993;28;20409;-67
2023/10/30 06:59:12;;;;;;;6.77;2.80;;;11.60;99.90;;;;;;5084936;28;20884;-66
2023/10/30 07:01:45;;;;;;;5.45;2.63;;;11.50;99.90;;;;;;5084342;28;20425;-67
2023/10/30 07:04:12;;;;;;;6.72;3.00;;;11.50;99.90;;;;;;5087882;28;20871;-66
2023/10/30 07:06:41;;;;;;;4.35;2.70;;;11.50;99.90;;;;;;5088025;28;21546;-66
2023/10/30 07:09:08;;;;;;;5.60;2.77;;;11.40;99.90;;;;;;5089261;28;20938;-66
2023/10/30 07:11:36;;;;;;;6.20;2.80;;;11.40;99.90;;;;;;5089408;28;20425;-67
2023/10/30 07:14:03;;;;;;;4.93;2.30;;;11.50;99.90;;;;;;5083858;28;20436;-67
2023/10/30 07:16:29;;;;;;;7.10;2.80;;;11.50;99.90;;;;;;5085666;28;20426;-67
2023/10/30 07:18:58;;;;;;;6.30;2.95;;;11.50;99.90;;;;;;5089042;28;20434;-67
2023/10/30 07:21:25;;;;;;;4.68;2.67;;;11.50;99.90;;;;;;5085638;28;20443;-67
2023/10/30 07:23:51;;;;;;;7.28;3.20;;;11.60;99.90;;;;;;5078002;28;20539;-67
2023/10/30 07:26:19;;;;;;;5.63;2.92;;;11.60;99.90;;;;;;5086387;28;20432;-69
2023/10/30 07:28:47;;;;;;;4.57;2.63;;;11.60;99.90;;;;;;5087849;28;20491;-70
2023/10/30 07:31:14;;;;;;;6.18;3.00;;;11.60;99.90;;;;;;5083722;28;20441;-70
2023/10/30 07:33:41;;;;;;;5.78;3.00;;;11.70;99.90;;;;;;5084636;28;20434;-67
2023/10/30 07:36:09;;;;;;;7.65;3.20;;;11.70;99.90;;;;;;5088062;28;20497;-66
2023/10/30 07:38:36;;;;;;;6.00;3.28;;;11.70;99.90;;;;;;5085815;28;20873;-65
2023/10/30 07:41:03;;;;;;;5.82;2.92;;;11.70;99.90;;;;;;5087823;28;20410;-67
2023/10/30 07:43:31;;;;;;;4.70;3.08;;;11.80;99.90;;;;;;5088863;28;20406;-66
2023/10/30 07:45:57;;;;;;;6.18;3.70;;;11.80;99.90;;;;;;5083998;28;20537;-66
2023/10/30 07:48:26;;;;;;;6.75;3.30;;;11.90;99.90;;;;;;5088321;28;20430;-66
2023/10/30 07:50:52;;;;;;;6.95;3.30;;;11.90;99.90;;;;;;5086885;28;20472;-66
2023/10/30 07:53:20;;;;;;;4.68;3.17;;;11.90;99.90;;;;;;5087148;28;20422;-65
2023/10/30 07:55:47;;;;;;;7.88;3.10;;;12.00;99.90;;;;;;5086174;28;20464;-65
2023/10/30 07:58:14;;;;;;;5.40;3.20;;;12.00;99.90;;;;;;5079065;28;20425;-66
2023/10/30 08:00:41;;;;;;;5.90;3.20;;;12.10;99.90;;;;;;5080060;28;20429;-65
2023/10/30 08:03:08;;;;;;;4.47;2.70;;;12.10;99.90;;;;;;5085873;28;20517;-66
2023/10/30 08:05:35;;;;;;;5.57;2.90;;;12.20;99.90;;;;;;5083782;28;20449;-65
2023/10/30 08:08:02;;;;;;;5.43;3.10;;;12.30;99.90;;;;;;5084391;28;20927;-66
2023/10/30 08:10:30;;;;;;;4.50;2.63;;;12.40;99.90;;;;;;5086042;28;20433;-64
2023/10/30 08:12:57;;;;;;;6.70;2.92;;;12.50;99.90;;;;;;5084954;28;20493;-66
2023/10/30 08:15:23;;;;;;;3.72;2.50;;;12.60;99.90;;;;;;5079566;28;20433;-66
2023/10/30 08:17:50;;;;;;;6.07;2.97;;;12.70;99.90;;;;;;5074517;28;20430;-66
2023/10/30 08:20:18;;;;;;;6.22;3.35;;;12.70;99.90;;;;;;5080676;28;20733;-65
2023/10/30 08:22:44;;;;;;;4.53;2.83;;;12.80;99.90;;;;;;5079521;28;20429;-65
2023/10/30 08:25:11;;;;;;;4.80;2.60;;;12.80;99.90;;;;;;5086327;28;20417;-71
2023/10/30 08:27:39;;;;;;;6.17;2.80;;;12.90;99.90;;;;;;5085534;28;20412;-66
2023/10/30 08:30:07;;;;;;;5.80;3.20;;;12.90;99.90;;;;;;5083969;28;22048;-66
2023/10/30 08:32:34;;;;;;;3.80;2.20;;;13.10;99.90;;;;;;5079176;28;20433;-66
2023/10/30 08:35:02;;;;;;;5.13;2.60;;;13.10;99.90;;;;;;5083895;28;20524;-65
2023/10/30 08:37:29;;;;;;;4.47;2.55;;;13.30;99.90;;;;;;5083854;28;20485;-65
2023/10/30 08:39:56;;;;;;;3.20;2.17;;;13.40;99.90;;;;;;5085330;28;20467;-65
2023/10/30 08:42:23;;;;;;;4.10;2.85;;;13.60;99.90;;;;;;5083698;28;20502;-66
2023/10/30 08:44:51;;;;;;;4.00;2.35;;;13.70;99.90;;;;;;5084491;28;20429;-66
2023/10/30 08:47:17;;;;;;;3.80;2.55;;;13.80;99.90;;;;;;5083837;28;20508;-65
2023/10/30 08:49:44;;;;;;;4.30;2.30;;;13.80;99.90;;;;;;5084772;28;20410;-66
2023/10/30 08:52:11;;;;;;;5.00;2.38;;;13.90;99.90;;;;;;5079622;28;20425;-65
2023/10/30 08:54:37;;;;;;;4.35;2.03;;;14.00;99.90;;;;;;5078124;28;21088;-64
2023/10/30 08:57:04;;;;;;;2.25;2.05;;;14.10;99.90;;;;;;5082606;28;20425;-66
2023/10/30 08:59:31;;;;;;;5.53;2.17;;;14.10;99.90;;;;;;5084494;28;20430;-66
2023/10/30 09:01:59;;;;;;;3.75;2.00;;;14.10;99.90;;;;;;5080561;28;20492;-66
2023/10/30 09:04:26;;;;;;;3.08;2.00;;;14.10;99.90;;;;;;5084128;28;20425;-67
2023/10/30 09:06:53;;;;;;;4.38;1.90;;;14.10;99.90;;;;;;5085054;28;20969;-67
2023/10/30 09:09:19;;;;;;;3.58;1.80;;;14.20;99.90;;;;;;5085278;28;20426;-67
2023/10/30 09:11:46;;;;;;;2.97;1.90;;;14.20;99.90;;;;;;5085341;28;20421;-68
2023/10/30 09:14:13;;;;;;;2.45;1.67;;;14.20;99.90;;;;;;5083472;28;20516;-68
2023/10/30 09:16:40;;;;;;;3.03;1.80;;;14.20;99.90;;;;;;5082754;28;20433;-67
2023/10/30 09:19:08;;;;;;;3.50;1.80;;;14.20;99.90;;;;;;5080445;28;20462;-68
2023/10/30 09:21:35;;;;;;;4.47;1.70;;;14.20;99.90;;;;;;5082668;28;20433;-65
2023/10/30 09:24:02;;;;;;;1.70;1.30;;;14.20;99.90;;;;;;5082010;28;20455;-67
2023/10/30 09:26:29;;;;;;;2.17;1.40;;;14.30;99.90;;;;;;5084031;28;20490;-68
2023/10/30 09:28:56;;;;;;;3.22;2.00;;;14.30;99.90;;;;;;5083229;28;20579;-69
2023/10/30 09:31:23;;;;;;;4.38;1.70;;;14.40;99.90;;;;;;5082347;28;20426;-67
2023/10/30 09:33:49;;;;;;;3.20;1.80;;;14.30;99.90;;;;;;5080083;28;20420;-68
2023/10/30 09:36:18;;;;;;;3.00;1.60;;;14.40;99.90;;;;;;5084643;28;20426;-69
2023/10/30 09:38:44;;;;;;;4.20;1.80;;;14.50;99.90;;;;;;5085143;28;20410;-70
2023/10/30 09:41:13;;;;;;;3.08;1.60;;;14.50;99.90;;;;;;5080725;28;20450;-69
2023/10/30 09:43:40;;;;;;;3.25;1.77;;;14.50;99.90;;;;;;5083577;28;20425;-69
2023/10/30 09:46:07;;;;;;;3.28;1.65;;;14.40;99.90;;;;;;5081807;28;20524;-70
2023/10/30 09:48:36;;;;;;;3.67;1.42;;;14.40;99.90;;;;;;5083366;28;20509;-69
2023/10/30 09:51:04;;;;;;;2.92;1.50;;;14.40;99.90;;;;;;5076855;28;20521;-69
2023/10/30 09:53:32;;;;;;;2.42;1.35;;;14.40;99.90;;;;;;5080188;28;20529;-69
2023/10/30 09:56:00;;;;;;;2.45;1.50;;;14.40;99.90;;;;;;5082294;28;20430;-68
2023/10/30 09:58:27;;;;;;;3.20;1.65;;;14.40;99.90;;;;;;5075421;28;20435;-68
2023/10/30 10:00:53;;;;;;;2.80;1.40;;;14.40;99.90;;;;;;5081951;28;20430;-67
2023/10/30 10:03:21;;;;;;;2.25;1.60;;;14.30;99.90;;;;;;5080943;28;20429;-68
2023/10/30 10:05:56;;;;;;;2.42;1.70;;;14.30;99.90;;;;;;5077216;28;20806;-67
2023/10/30 10:08:23;;;;;;;2.50;1.52;;;14.30;99.90;;;;;;5083788;28;20554;-68
2023/10/30 10:10:59;;;;;;;1.80;1.60;;;14.30;99.90;;;;;;5083034;28;20430;-67
2023/10/30 10:13:27;;;;;;;2.55;1.60;;;14.30;99.90;;;;;;5082736;28;20461;-68
2023/10/30 10:15:54;;;;;;;2.47;1.50;;;14.40;99.90;;;;;;5080774;28;20895;-68
2023/10/30 10:18:25;;;;;;;2.40;1.52;;;14.40;99.90;;;;;;5079195;28;20413;-68
2023/10/30 10:20:56;;;;;;;3.40;1.98;;;14.40;99.90;;;;;;5076800;28;20433;-68
2023/10/30 10:23:23;;;;;;;2.38;1.50;;;14.40;99.90;;;;;;5084245;28;20410;-69
2023/10/30 10:25:54;;;;;;;3.40;1.60;;;14.40;99.90;;;;;;5082998;28;20410;-67
2023/10/30 10:28:23;;;;;;;2.33;1.45;;;14.40;99.90;;;;;;5082339;28;21902;-68
2023/10/30 10:30:50;;;;;;;2.58;1.60;;;14.50;99.90;;;;;;5078243;28;20425;-67
2023/10/30 10:33:18;;;;;;;2.47;1.50;;;14.50;99.90;;;;;;5080066;28;21106;-68
2023/10/30 10:35:45;;;;;;;2.40;2.05;;;14.60;99.90;;;;;;5077516;28;20525;-68
2023/10/30 10:38:16;;;;;;;2.70;1.30;;;14.60;99.90;;;;;;5079817;28;20512;-69
2023/10/30 10:40:44;;;;;;;2.60;1.40;;;14.60;99.90;;;;;;5078967;28;20432;-69
2023/10/30 10:43:12;;;;;;;2.63;1.40;;;14.70;99.90;;;;;;5081453;28;20429;-71
2023/10/30 10:45:41;;;;;;;2.20;1.25;;;14.70;99.90;;;;;;5082027;28;20512;-69
2023/10/30 10:48:09;;;;;;;2.40;1.20;;;14.70;99.90;;;;;;5084544;28;20406;-68
2023/10/30 10:50:36;;;;;;;2.90;1.23;;;14.70;99.90;;;;;;5083279;28;20900;-71
2023/10/30 10:53:05;;;;;;;3.88;1.67;;;14.70;99.90;;;;;;5083890;28;20426;-69
2023/10/30 10:55:37;;;;;;;2.25;1.20;;;14.70;99.90;;;;;;5083291;28;20417;-71
2023/10/30 10:58:10;;;;;;;2.30;1.30;;;14.60;99.90;;;;;;5080703;28;20500;-70
2023/10/30 11:00:41;;;;;;;1.58;1.10;;;14.60;99.90;;;;;;5079212;28;20429;-72
2023/10/30 11:03:08;;;;;;;4.35;1.50;;;14.60;99.90;;;;;;5082708;28;20402;-67
2023/10/30 11:05:36;;;;;;;1.73;0.90;;;14.70;99.90;;;;;;5084441;28;20445;-69
2023/10/30 11:08:12;;;;;;;2.33;0.90;;;14.70;99.90;;;;;;5079804;28;20420;-69
2023/10/30 11:10:44;;;;;;;1.80;1.00;;;14.80;99.90;;;;;;5081062;28;20495;-69
2023/10/30 11:13:17;;;;;;;1.50;0.90;;;15.00;99.90;;;;;;5082555;28;20507;-69
2023/10/30 11:15:51;;;;;;;1.52;0.80;;;15.20;99.50;;;;;;5077881;28;21222;-71
2023/10/30 11:18:20;;;;;;;1.90;0.80;;;15.70;99.30;;;;;;5078716;28;20415;-69
2023/10/30 11:20:47;;;;;;;1.48;0.80;;;16.10;97.90;;;;;;5079761;28;20425;-69
2023/10/30 11:23:34;;;;;;;2.53;0.80;;;16.30;97.10;;;;;;5083074;28;20532;-69
2023/10/30 11:26:03;;;;;;;1.60;0.80;;;16.40;95.90;;;;;;5076939;28;20417;-69
2023/10/30 11:28:33;;;;;;;1.40;0.70;;;16.20;95.80;;;;;;5079668;28;20426;-70
2023/10/30 11:31:07;;;;;;;2.10;0.70;;;16.10;96.30;;;;;;5081077;28;20455;-70
2023/10/30 11:33:34;;;;;;;1.70;0.60;;;16.10;96.70;;;;;;5081088;28;20946;-70
2023/10/30 11:36:26;;;;;;;1.17;0.60;;;16.00;97.10;;;;;;5074731;28;20809;-70
2023/10/30 11:39:08;;;;;;;1.10;0.60;;;16.00;97.20;;;;;;5083153;28;20426;-69
2023/10/30 11:41:38;;;;;;;1.73;0.60;;;15.90;96.50;;;;;;5078572;28;20501;-68
2023/10/30 11:44:09;;;;;;;2.10;0.70;;;15.80;97.00;;;;;;5083758;28;20474;-69
2023/10/30 11:46:39;;;;;;;1.00;0.60;;;15.70;96.80;;;;;;5079822;28;20437;-69
2023/10/30 11:49:07;;;;;;;1.80;0.60;;;15.50;97.40;;;;;;5071288;28;20590;-72
2023/10/30 11:51:36;;;;;;;1.00;0.52;;;15.40;97.90;;;;;;5078367;28;20439;-69
2023/10/30 11:54:03;;;;;;;1.73;0.60;;;15.30;98.20;;;;;;5083122;28;20552;-70
2023/10/30 11:56:29;;;;;;;1.45;0.50;;;15.30;98.50;;;;;;5082612;28;21003;-68
2023/10/30 11:58:58;;;;;;;1.98;0.70;;;15.20;98.90;;;;;;5083680;28;20521;-71
2023/10/30 12:01:25;;;;;;;1.80;0.50;;;15.30;98.90;;;;;;5082852;28;20433;-69
2023/10/30 12:03:53;;;;;;;0.90;0.52;;;15.30;98.80;;;;;;5086269;28;20428;-70
2023/10/30 12:06:20;;;;;;;1.73;0.63;;;15.30;99.00;;;;;;5083151;28;20435;-69
2023/10/30 12:08:46;;;;;;;1.20;0.60;;;15.40;99.00;;;;;;5086852;28;20406;-69
2023/10/30 12:11:14;;;;;;;1.30;0.50;;;15.30;98.90;;;;;;5087042;28;20792;-69
2023/10/30 12:13:40;;;;;;;1.50;0.60;;;15.30;98.70;;;;;;5083782;28;20448;-70
2023/10/30 12:16:09;;;;;;;1.00;0.50;;;15.30;98.80;;;;;;5083170;28;20903;-69
2023/10/30 12:18:36;;;;;;;1.70;0.50;;;15.30;98.90;;;;;;5085391;28;20414;-69
2023/10/30 12:21:03;;;;;;;1.10;0.50;;;15.40;99.10;;;;;;5081779;28;20860;-68
2023/10/30 12:23:30;;;;;;;0.90;0.45;;;15.40;98.90;;;;;;5085904;28;20508;-69
2023/10/30 12:26:04;;;;;;;1.63;0.60;;;15.50;98.60;;;;;;5080973;28;20437;-68
2023/10/30 12:28:35;;;;;;;1.30;0.60;;;15.60;98.60;;;;;;5084134;28;20955;-68
2023/10/30 12:31:19;;;;;;;1.60;0.60;;;15.50;98.60;;;;;;5084041;28;20457;-68
2023/10/30 12:33:46;;;;;;;1.85;0.50;;;15.50;98.20;;;;;;5084877;28;20454;-69
2023/10/30 12:36:13;;;;;;;1.20;0.60;;;15.50;98.50;;;;;;5086854;28;20807;-69
2023/10/30 12:38:40;;;;;;;2.00;0.50;;;15.50;98.40;;;;;;5086666;28;20405;-68
2023/10/30 12:41:07;;;;;;;0.90;0.50;;;15.40;98.70;;;;;;5086146;28;20466;-69
2023/10/30 12:43:38;;;;;;;1.20;0.50;;;15.30;98.50;;;;;;5081573;28;20911;-68
2023/10/30 12:46:05;;;;;;;0.90;0.50;;;15.30;99.10;;;;;;5076206;28;20425;-68
2023/10/30 12:48:34;;;;;;;1.00;0.50;;;15.30;98.90;;;;;;5086410;28;20418;-68
2023/10/30 12:51:01;;;;;;;0.80;0.40;;;15.20;98.80;;;;;;5084836;28;20895;-69